Aeroporto :
LOGIN :

Iscrizione | Disclaimer

   EN    FR    IT 

 










Sommario :    VFR   VFR Marginale   IFR   IFR Intensivo   IFR Molto Intensivo
Visibilità : 
Base nubi : 
>= 8 km
>= 3000ft
5 / 8 km
1000 / 3000 ft
1500m / 5 km
500 / 1000 ft
800 / 1500m
200 / 500 ft
< 800m
< 200 ft
Simboli :   Temporali  Nebbia  Neve Forte  Precipitazioni Forti  Vento > 20 kt
SIGMETs :   Varie  Temporali  Ghiacco  Turbolenza  Onda orograficha  Ceneri Vulcaniche






- Altitudine del aeroporto : 197 ft
- Codice IATA : XOG


LFMO - Orange

ULTIMO METAR :
  • 231130Z AUTO VRB02KT 9999 FEW027 24/17 Q1011 NOSIG

METARs OBSOLETI :
  • 231100Z AUTO VRB02KT 9999 SCT022 BKN029 22/16 Q1011 NOSIG
  • 231030Z AUTO VRB02KT 9999 BKN021 22/16 Q1011 NOSIG
  • 231000Z AUTO VRB02KT 9999 BKN018 BKN023 BKN030 23/17 Q1011 TEMPO BKN010
  • 230930Z AUTO 00000KT 9999 FEW011 BKN030 22/17 Q1012 TEMPO BKN010
  • 230900Z AUTO VRB02KT 9999 OVC028 20/17 Q1012 BECMG BKN010

TAF TAF LFMO
Valido dal 23 a 09 ore il 24 a 09 ore UTC


230800Z 2309/2409 VRB02KT 9999 BKN010
BECMG 2311/2312 SCT020



MetMap, La meteo Aeronautica in un colpo d'occhio ! - Copyright ORBIFLY Dicembre 2007 - Disclaimer

ORBIFLY MET'MAP TEAM :

Programmazione e sviluppo : Alexandra Zaïnal
Concezione : Baudouin d'Aumeries
Aiuto per la programmazione : Marc-Olivier Méhu
Supporto tecnico e logistico : Manuel Goepfert
Aiuto per la traduzione : Arnaldo La Scala

Contatto : metmap@orbifly.com




FONTI E CREDITI :

   NOAA